Time;durP1;ratioP1;P1;durP2;ratioP2;P2;SDS_P1;SDS_P2;PMS_P1;PMS_P2;Temp;Humidity;BMP_temperature;BMP_pressure;BME280_temperature;BME280_humidity;BME280_pressure;Samples;Min_cycle;Max_cycle;Signal;HPM_P1;HPM_P2
2021/05/27 00:00:08;;;;;;;3.70;3.60;;;;;;;10.50;74.64;101042.91;4380406;32;20600;-66
2021/05/27 00:02:33;;;;;;;4.20;4.00;;;;;;;10.50;74.22;101046.41;4386620;32;20206;-65
2021/05/27 00:04:58;;;;;;;3.65;3.55;;;;;;;10.49;75.06;101041.22;4383513;32;20089;-65
2021/05/27 00:07:24;;;;;;;4.28;4.07;;;;;;;10.36;74.71;101023.44;4375600;32;20098;-65
2021/05/27 00:09:49;;;;;;;4.20;4.00;;;;;;;10.47;74.11;101045.69;4371374;32;21499;-65
2021/05/27 00:12:15;;;;;;;3.85;3.75;;;;;;;10.46;75.10;101049.22;4386792;32;20104;-65
2021/05/27 00:14:40;;;;;;;4.00;3.80;;;;;;;10.36;74.58;101035.66;4381029;32;20065;-65
2021/05/27 00:17:05;;;;;;;4.40;4.20;;;;;;;10.51;73.79;101045.47;4375355;32;20078;-66
2021/05/27 00:19:31;;;;;;;4.20;4.00;;;;;;;10.51;74.43;101049.88;4388472;32;20100;-65
2021/05/27 00:21:56;;;;;;;4.30;4.10;;;;;;;9.58;74.62;100894.09;4394639;32;20085;-66
2021/05/27 00:24:21;;;;;;;4.20;4.00;;;;;;;10.49;73.74;101047.31;4395962;32;20065;-66
2021/05/27 00:26:47;;;;;;;4.05;3.85;;;;;;;10.50;74.46;101046.41;4382655;32;20124;-65
2021/05/27 00:29:12;;;;;;;4.00;3.80;;;;;;;10.49;74.08;101056.97;4400456;32;20480;-66
2021/05/27 00:31:37;;;;;;;3.80;3.70;;;;;;;10.44;74.10;101051.91;4395236;32;20191;-65
2021/05/27 00:34:03;;;;;;;4.03;3.85;;;;;;;10.50;74.95;101053.41;4389506;32;20115;-66
2021/05/27 00:36:29;;;;;;;3.70;3.60;;;;;;;10.50;74.57;101053.41;4381347;32;20073;-66
2021/05/27 00:38:54;;;;;;;3.70;3.60;;;;;;;9.35;74.35;100866.28;4383873;32;20135;-65
2021/05/27 00:41:19;;;;;;;4.05;3.85;;;;;;;10.41;74.78;101049.44;4380696;32;20879;-65
2021/05/27 00:43:45;;;;;;;4.43;4.22;;;;;;;10.44;74.67;101058.94;4386155;32;20077;-65
2021/05/27 00:46:10;;;;;;;4.43;4.22;;;;;;;10.45;74.78;101058.88;4380359;32;20092;-65
2021/05/27 00:51:19;;;;;;;4.57;4.37;;;;;;;10.38;75.24;101055.69;4377606;32;20135;-66
2021/05/27 00:53:45;;;;;;;3.80;3.70;;;;;;;10.43;74.60;101059.88;4380955;32;20662;-65
2021/05/27 00:56:10;;;;;;;3.85;3.75;;;;;;;10.40;74.91;101060.84;4392633;32;20085;-65
2021/05/27 00:58:35;;;;;;;3.80;3.70;;;;;;;10.33;75.48;101057.66;4378696;32;20079;-66
2021/05/27 01:01:01;;;;;;;3.97;3.80;;;;;;;10.24;75.55;101049.31;4393553;32;20857;-65
2021/05/27 01:03:26;;;;;;;4.53;4.28;;;;;;;10.30;76.06;101064.81;4376769;32;20619;-65
2021/05/27 01:05:51;;;;;;;3.85;3.72;;;;;;;10.27;75.32;101064.94;4396328;32;20105;-64
2021/05/27 01:08:17;;;;;;;4.10;3.90;;;;;;;10.27;75.92;101062.31;4377978;32;20073;-65
2021/05/27 01:10:42;;;;;;;3.78;3.67;;;;;;;10.22;76.38;101066.91;4397899;32;20066;-65
2021/05/27 01:13:08;;;;;;;4.40;4.20;;;;;;;10.24;75.87;101063.28;4384014;32;20140;-65
2021/05/27 01:15:38;;;;;;;4.25;4.05;;;;;;;10.19;75.94;101057.41;4396943;32;20134;-65
2021/05/27 01:18:09;;;;;;;3.90;3.75;;;;;;;10.22;75.70;101059.88;4393938;32;20678;-65
2021/05/27 01:20:34;;;;;;;3.90;3.75;;;;;;;9.85;76.07;101016.09;4391755;32;20688;-65
2021/05/27 01:23:00;;;;;;;4.55;4.35;;;;;;;9.96;76.98;101059.28;4381552;32;20083;-65
2021/05/27 01:25:25;;;;;;;4.10;3.90;;;;;;;9.03;76.98;100913.97;4400090;32;20080;-65
2021/05/27 01:27:51;;;;;;;3.80;3.70;;;;;;;9.49;76.36;100994.03;4397982;32;20084;-65
2021/05/27 01:30:17;;;;;;;3.78;3.67;;;;;;;8.72;77.39;100866.38;4379324;32;20125;-65
2021/05/27 01:32:42;;;;;;;3.92;3.75;;;;;;;9.85;77.96;101055.41;4389749;32;20081;-65
2021/05/27 01:35:13;;;;;;;4.10;3.90;;;;;;;9.79;77.67;101075.72;4382521;32;20085;-65
2021/05/27 01:37:38;;;;;;;3.75;3.65;;;;;;;9.76;78.24;101051.41;4381466;32;20095;-65
2021/05/27 01:40:05;;;;;;;3.78;3.67;;;;;;;9.72;78.35;101057.69;4383309;32;20069;-65
2021/05/27 01:42:30;;;;;;;3.70;3.60;;;;;;;9.63;78.95;101056.34;4402590;32;20151;-65
2021/05/27 01:44:56;;;;;;;4.80;4.60;;;;;;;9.69;78.03;101060.47;4385852;32;20119;-64
2021/05/27 01:47:21;;;;;;;3.90;3.75;;;;;;;9.66;78.74;101058.84;4384339;32;20061;-64
2021/05/27 01:49:46;;;;;;;4.37;4.18;;;;;;;9.57;79.42;101061.84;4389279;32;20062;-64
2021/05/27 01:52:12;;;;;;;3.60;3.50;;;;;;;9.59;78.51;101073.94;4383703;32;20917;-65
2021/05/27 01:54:37;;;;;;;3.85;3.75;;;;;;;9.56;79.34;101075.84;4389472;32;20111;-64
2021/05/27 01:57:03;;;;;;;4.10;3.90;;;;;;;9.50;79.91;101070.84;4384334;32;20092;-65
2021/05/27 01:59:29;;;;;;;3.60;3.50;;;;;;;9.53;79.06;101074.19;4382997;32;20075;-65
2021/05/27 02:01:54;;;;;;;3.95;3.80;;;;;;;9.51;79.08;101056.84;4396009;32;20142;-65
2021/05/27 02:04:20;;;;;;;3.70;3.60;;;;;;;9.58;79.76;101069.62;4398194;32;20545;-65
2021/05/27 02:06:45;;;;;;;3.75;3.65;;;;;;;9.59;79.48;101067.84;4395453;32;20138;-65
2021/05/27 02:09:11;;;;;;;4.20;4.00;;;;;;;9.66;78.75;101071.06;4389058;32;20066;-65
2021/05/27 02:11:39;;;;;;;3.60;3.50;;;;;;;8.55;78.67;100880.13;4407949;32;20077;-64
2021/05/27 02:14:05;;;;;;;3.70;3.60;;;;;;;9.26;79.56;100996.78;4409549;32;20065;-65
2021/05/27 02:16:30;;;;;;;4.18;3.97;;;;;;;9.78;78.60;101078.41;4395743;32;20072;-65
2021/05/27 02:18:56;;;;;;;3.70;3.60;;;;;;;9.81;79.52;101069.56;4407015;32;20831;-65
2021/05/27 02:21:21;;;;;;;4.93;4.72;;;;;;;9.89;79.58;101070.09;4396937;32;20065;-66
2021/05/27 02:23:46;;;;;;;3.97;3.80;;;;;;;9.92;78.17;101069.94;4397435;32;20099;-65
2021/05/27 02:26:12;;;;;;;3.95;3.75;;;;;;;10.02;77.83;101070.41;4388764;32;20073;-65
2021/05/27 02:28:37;;;;;;;4.62;4.37;;;;;;;10.04;78.70;101076.41;4394264;32;20107;-65
2021/05/27 02:31:03;;;;;;;4.12;3.92;;;;;;;10.06;78.58;101075.44;4395514;32;20152;-65
2021/05/27 02:33:29;;;;;;;3.65;3.55;;;;;;;10.08;78.64;101080.63;4395463;32;20054;-65
2021/05/27 02:35:54;;;;;;;3.95;3.78;;;;;;;10.10;78.57;101081.41;4394864;32;20069;-66
2021/05/27 02:38:19;;;;;;;3.70;3.60;;;;;;;10.12;78.41;101079.56;4395782;32;20062;-66
2021/05/27 02:40:45;;;;;;;3.90;3.70;;;;;;;10.13;78.12;101082.13;4399269;32;20091;-66
2021/05/27 02:43:10;;;;;;;4.15;3.95;;;;;;;10.10;78.35;101082.28;4396356;32;20127;-66
2021/05/27 02:45:35;;;;;;;3.67;3.58;;;;;;;10.11;79.02;101093.59;4401089;32;20064;-66
2021/05/27 02:48:01;;;;;;;3.80;3.70;;;;;;;10.13;78.00;101090.00;4397411;32;20077;-66
2021/05/27 02:50:26;;;;;;;3.70;3.60;;;;;;;10.14;79.06;101081.22;4410935;32;20068;-66
2021/05/27 02:52:51;;;;;;;4.20;4.00;;;;;;;10.17;77.85;101082.84;4396355;32;20075;-66
2021/05/27 02:55:17;;;;;;;3.85;3.67;;;;;;;10.15;78.46;101082.06;4384060;32;20658;-66
2021/05/27 02:57:42;;;;;;;3.72;3.60;;;;;;;10.16;79.24;101089.00;4398024;32;20617;-65
2021/05/27 03:00:08;;;;;;;4.53;4.32;;;;;;;10.15;79.32;101077.66;4393702;32;20087;-65
2021/05/27 03:02:33;;;;;;;4.20;4.00;;;;;;;10.15;79.08;101084.69;4403462;32;20640;-66
2021/05/27 03:04:59;;;;;;;3.40;3.30;;;;;;;10.12;79.75;101084.81;4395470;32;20085;-65
2021/05/27 03:07:24;;;;;;;4.22;4.03;;;;;;;10.14;79.41;101091.72;4403355;32;20069;-66
2021/05/27 03:09:49;;;;;;;4.65;4.45;;;;;;;10.07;80.66;101082.41;4406795;32;20326;-66
2021/05/27 03:12:15;;;;;;;3.95;3.80;;;;;;;9.14;81.04;100944.00;4396754;32;20077;-66
2021/05/27 03:14:40;;;;;;;4.10;3.90;;;;;;;10.02;80.91;101096.62;4413603;32;20095;-65
2021/05/27 03:17:05;;;;;;;4.00;3.80;;;;;;;10.07;81.08;101100.75;4391320;32;20136;-66
2021/05/27 03:19:31;;;;;;;4.25;4.05;;;;;;;10.02;80.89;101100.09;4396707;32;20057;-66
2021/05/27 03:21:56;;;;;;;4.00;3.80;;;;;;;9.97;82.12;101110.78;4390106;32;20084;-65
2021/05/27 03:24:22;;;;;;;3.87;3.70;;;;;;;9.99;81.68;101111.56;4402211;32;20138;-65
2021/05/27 03:26:51;;;;;;;4.20;4.00;;;;;;;9.62;81.96;101062.47;4397412;32;20083;-66
2021/05/27 03:29:17;;;;;;;4.25;4.05;;;;;;;9.94;82.30;101108.31;4412208;32;20651;-66
2021/05/27 03:31:43;;;;;;;4.18;3.97;;;;;;;9.95;82.65;101117.00;4398579;32;20196;-65
2021/05/27 03:34:08;;;;;;;4.15;3.95;;;;;;;9.95;82.69;101104.75;4401225;32;20138;-65
2021/05/27 03:36:33;;;;;;;4.18;3.97;;;;;;;10.00;81.58;101107.16;4410420;32;20097;-65
2021/05/27 03:38:59;;;;;;;3.97;3.78;;;;;;;10.04;81.75;101115.75;4399396;32;20092;-66
2021/05/27 03:41:24;;;;;;;4.00;3.85;;;;;;;10.02;82.21;101115.81;4415638;32;20733;-65
2021/05/27 03:43:49;;;;;;;3.85;3.75;;;;;;;10.01;81.78;101105.41;4407409;32;20075;-65
2021/05/27 03:46:15;;;;;;;4.47;4.28;;;;;;;10.02;81.72;101112.34;4408341;32;20072;-65
2021/05/27 03:48:40;;;;;;;4.05;3.85;;;;;;;10.08;81.17;101112.09;4408650;32;20061;-65
2021/05/27 03:51:05;;;;;;;3.70;3.60;;;;;;;10.03;81.14;101114.91;4401164;32;20151;-65
2021/05/27 03:53:31;;;;;;;3.97;3.78;;;;;;;10.06;82.14;101117.38;4411123;32;20087;-66
2021/05/27 03:55:56;;;;;;;3.60;3.50;;;;;;;10.03;81.48;101108.81;4402222;32;20057;-66
2021/05/27 04:01:05;;;;;;;3.70;3.60;;;;;;;8.87;81.46;100946.00;4402013;32;20107;-65
2021/05/27 04:07:07;;;;;;;3.60;3.50;;;;;;;10.03;81.50;101125.41;4389958;32;20081;-65
2021/05/27 04:09:00;;;;;;;4.07;3.87;;;;;;;10.04;81.90;101121.00;4403490;32;20099;-66
2021/05/27 04:11:25;;;;;;;3.65;3.55;;;;;;;10.01;82.14;101134.25;4414564;32;20698;-65
2021/05/27 04:13:51;;;;;;;4.10;3.90;;;;;;;9.95;81.88;101125.72;4412725;32;20147;-66
2021/05/27 04:16:16;;;;;;;3.83;3.72;;;;;;;9.96;80.68;101127.44;4400829;32;20095;-65
2021/05/27 04:18:41;;;;;;;3.67;3.58;;;;;;;10.01;80.83;101129.03;4415800;32;20065;-66
2021/05/27 04:21:07;;;;;;;3.60;3.50;;;;;;;9.98;81.39;101133.47;4401078;32;20073;-65
2021/05/27 04:23:36;;;;;;;4.22;4.03;;;;;;;10.04;81.17;101132.34;4400382;32;20071;-67
2021/05/27 04:26:12;;;;;;;4.00;3.80;;;;;;;10.04;81.23;101136.72;4394895;32;20508;-66
2021/05/27 04:28:37;;;;;;;4.22;3.92;;;;;;;10.02;82.00;101146.44;4400517;32;20085;-66
2021/05/27 04:31:10;;;;;;;3.70;3.60;;;;;;;9.96;81.78;101129.19;4393630;32;20076;-67
2021/05/27 04:33:42;;;;;;;3.50;3.40;;;;;;;9.97;81.86;101138.78;4401784;32;20775;-63
2021/05/27 04:36:08;;;;;;;4.40;4.20;;;;;;;9.94;81.49;101139.78;4410290;32;20085;-64
2021/05/27 04:38:33;;;;;;;3.80;3.60;;;;;;;10.05;81.10;101135.84;4385668;32;20107;-64
2021/05/27 04:40:58;;;;;;;3.72;3.62;;;;;;;9.73;81.80;101086.47;4393854;32;20104;-67
2021/05/27 04:43:24;;;;;;;4.20;4.00;;;;;;;10.12;81.11;101138.13;4400817;32;20085;-64
2021/05/27 04:45:49;;;;;;;3.78;3.67;;;;;;;10.13;81.28;101149.47;4401631;32;20080;-65
2021/05/27 04:48:15;;;;;;;3.72;3.55;;;;;;;10.12;80.61;101148.63;4397891;32;20748;-65
2021/05/27 04:50:41;;;;;;;4.20;4.00;;;;;;;10.15;80.32;101142.37;4402240;32;20085;-64
2021/05/27 04:53:07;;;;;;;3.60;3.50;;;;;;;10.07;80.60;101153.19;4401672;32;20061;-65
2021/05/27 04:55:32;;;;;;;3.67;3.58;;;;;;;10.07;80.97;101154.97;4382052;32;20073;-65
2021/05/27 04:57:58;;;;;;;3.60;3.50;;;;;;;10.02;81.88;101142.03;4395552;32;20155;-64
2021/05/27 05:00:24;;;;;;;4.10;3.90;;;;;;;10.08;82.01;101156.66;4402449;32;20069;-66
2021/05/27 05:02:50;;;;;;;4.00;3.80;;;;;;;9.97;81.74;101154.50;4388193;32;20583;-64
2021/05/27 05:05:16;;;;;;;3.70;3.60;;;;;;;9.94;82.79;101152.88;4400282;32;20081;-64
2021/05/27 05:07:42;;;;;;;4.50;4.30;;;;;;;10.02;83.19;101167.41;4413098;32;20696;-65
2021/05/27 05:10:08;;;;;;;5.10;4.90;;;;;;;9.92;82.49;101170.44;4404483;32;20088;-64
2021/05/27 05:12:44;;;;;;;4.07;3.87;;;;;;;9.90;83.62;101169.66;4407936;32;21426;-64
2021/05/27 05:15:15;;;;;;;4.20;4.00;;;;;;;9.75;84.32;101170.28;4392306;32;20226;-63
2021/05/27 05:17:40;;;;;;;4.35;4.15;;;;;;;9.74;85.24;101168.56;4392892;32;20057;-64
2021/05/27 05:20:06;;;;;;;4.00;3.80;;;;;;;9.79;85.17;101169.25;4401128;32;20826;-64
2021/05/27 05:22:32;;;;;;;3.67;3.58;;;;;;;9.62;85.65;101161.22;4411788;32;20175;-64
2021/05/27 05:24:57;;;;;;;3.60;3.50;;;;;;;9.68;84.58;101174.06;4401143;32;20077;-64
2021/05/27 05:27:23;;;;;;;4.05;3.85;;;;;;;8.37;84.76;100957.53;4398258;32;20057;-64
2021/05/27 05:29:48;;;;;;;3.60;3.50;;;;;;;9.67;85.61;101162.72;4400051;32;20057;-65
2021/05/27 05:32:13;;;;;;;4.05;3.85;;;;;;;9.70;85.56;101173.09;4399397;32;20069;-65
2021/05/27 05:34:39;;;;;;;3.80;3.70;;;;;;;9.69;85.87;101175.78;4398093;32;20061;-65
2021/05/27 05:37:05;;;;;;;4.95;4.50;;;;;;;9.63;85.74;101192.59;4398103;32;20066;-65
2021/05/27 05:39:30;;;;;;;4.65;4.35;;;;;;;9.59;86.78;101178.75;4400041;32;20115;-64
2021/05/27 05:41:56;;;;;;;4.00;3.80;;;;;;;9.63;86.29;101184.72;4402583;32;20073;-64
2021/05/27 05:44:21;;;;;;;3.70;3.60;;;;;;;9.29;86.96;101138.94;4396559;32;20123;-65
2021/05/27 05:46:47;;;;;;;3.62;3.53;;;;;;;9.53;86.30;101188.66;4397973;32;20061;-64
2021/05/27 05:49:12;;;;;;;3.60;3.50;;;;;;;9.57;86.87;101188.44;4399788;32;20077;-65
2021/05/27 05:51:37;;;;;;;3.90;3.70;;;;;;;9.58;87.60;101190.16;4411809;32;20072;-65
2021/05/27 05:54:03;;;;;;;4.15;3.92;;;;;;;9.49;86.75;101184.44;4395718;32;20547;-67
2021/05/27 05:56:28;;;;;;;3.58;3.47;;;;;;;9.58;87.58;101192.78;4389328;32;20204;-65
2021/05/27 05:58:53;;;;;;;3.60;3.50;;;;;;;9.61;87.46;101198.81;4397385;32;20073;-65
2021/05/27 06:01:19;;;;;;;3.70;3.60;;;;;;;9.53;87.81;101201.75;4413196;32;20064;-64
2021/05/27 06:03:44;;;;;;;4.07;3.87;;;;;;;9.50;87.79;101199.22;4411072;32;20157;-64
2021/05/27 06:06:10;;;;;;;4.57;4.28;;;;;;;9.49;87.24;101202.78;4398314;32;20064;-64
2021/05/27 06:08:36;;;;;;;4.00;3.80;;;;;;;8.32;87.75;101009.19;4401910;32;20300;-65
2021/05/27 06:11:01;;;;;;;3.90;3.70;;;;;;;9.55;88.18;101206.00;4399489;32;20143;-64
2021/05/27 06:13:27;;;;;;;3.97;3.78;;;;;;;9.64;87.52;101206.53;4404854;32;20068;-65
2021/05/27 06:15:52;;;;;;;3.87;3.67;;;;;;;9.71;87.39;101213.25;4404489;32;20599;-65
2021/05/27 06:18:17;;;;;;;4.10;3.90;;;;;;;9.79;86.72;101212.03;4401933;32;20079;-65
2021/05/27 06:20:43;;;;;;;4.15;3.95;;;;;;;9.88;87.07;101210.81;4411464;32;20065;-65
2021/05/27 06:23:08;;;;;;;3.90;3.70;;;;;;;9.91;86.51;101217.69;4401351;32;20080;-65
2021/05/27 06:25:33;;;;;;;3.87;3.72;;;;;;;9.91;86.78;101218.53;4396643;32;20461;-65
2021/05/27 06:27:59;;;;;;;3.80;3.70;;;;;;;9.81;85.50;101201.47;4399541;32;20083;-65
2021/05/27 06:30:27;;;;;;;3.70;3.60;;;;;;;9.93;85.30;101216.69;4409528;32;20202;-65
2021/05/27 06:32:53;;;;;;;4.07;3.87;;;;;;;9.87;85.63;101221.34;4400824;32;20072;-65
2021/05/27 06:35:18;;;;;;;3.65;3.55;;;;;;;9.65;86.18;101210.88;4398084;32;20107;-65
2021/05/27 06:37:43;;;;;;;4.10;3.90;;;;;;;9.49;85.55;101166.94;4412635;32;20057;-65
2021/05/27 06:40:11;;;;;;;4.75;4.55;;;;;;;9.89;85.50;101230.00;4397076;32;20064;-69
2021/05/27 06:42:36;;;;;;;3.70;3.60;;;;;;;10.02;84.78;101235.59;4387804;32;21532;-68
2021/05/27 06:45:02;;;;;;;4.18;3.97;;;;;;;10.12;84.53;101231.66;4397639;32;20088;-68
2021/05/27 06:47:27;;;;;;;4.22;4.03;;;;;;;10.06;84.27;101242.41;4408280;32;20815;-67
2021/05/27 06:49:53;;;;;;;4.20;4.00;;;;;;;10.12;83.62;101242.16;4398994;32;20079;-68
2021/05/27 06:52:18;;;;;;;4.18;3.97;;;;;;;10.15;84.51;101242.88;4398671;32;20090;-68
2021/05/27 06:54:44;;;;;;;3.80;3.70;;;;;;;10.17;85.08;101251.53;4411592;32;20061;-69
2021/05/27 06:57:09;;;;;;;4.07;3.87;;;;;;;10.34;84.21;101247.37;4395907;32;20155;-68
2021/05/27 06:59:34;;;;;;;3.80;3.70;;;;;;;10.52;82.33;101246.63;4374198;32;20073;-68
2021/05/27 07:02:00;;;;;;;4.20;4.00;;;;;;;10.54;83.63;101239.53;4399494;32;20065;-69
2021/05/27 07:04:26;;;;;;;3.87;3.75;;;;;;;10.31;81.94;101189.81;4413426;32;20084;-68
2021/05/27 07:06:52;;;;;;;3.80;3.70;;;;;;;10.50;82.24;101244.97;4413643;32;20099;-68
2021/05/27 07:09:17;;;;;;;4.00;3.80;;;;;;;10.11;81.48;101188.03;4400506;32;20123;-69
2021/05/27 07:11:42;;;;;;;4.00;3.80;;;;;;;10.60;80.86;101242.81;4410100;32;20096;-67
2021/05/27 07:14:09;;;;;;;4.10;3.90;;;;;;;10.60;81.12;101248.91;4396010;32;20654;-68
2021/05/27 07:16:35;;;;;;;4.25;4.05;;;;;;;10.44;80.59;101239.97;4398309;32;20089;-69
2021/05/27 07:19:00;;;;;;;3.75;3.65;;;;;;;10.52;81.50;101240.50;4399480;32;20484;-69
2021/05/27 07:21:26;;;;;;;4.25;4.05;;;;;;;10.50;81.04;101242.34;4396718;32;20093;-67
2021/05/27 07:23:51;;;;;;;3.95;3.75;;;;;;;10.46;80.91;101261.75;4397478;32;20127;-70
2021/05/27 07:26:16;;;;;;;4.05;3.85;;;;;;;10.32;81.20;101264.97;4398608;32;20626;-66
2021/05/27 07:28:42;;;;;;;4.20;4.00;;;;;;;10.20;81.96;101232.19;4407648;32;20068;-67
2021/05/27 07:31:07;;;;;;;4.10;3.90;;;;;;;10.51;81.27;101262.44;4402580;32;20073;-67
2021/05/27 07:33:33;;;;;;;4.12;3.92;;;;;;;10.50;80.87;101252.84;4409223;32;20098;-67
2021/05/27 07:35:58;;;;;;;4.10;3.90;;;;;;;10.48;81.39;101260.78;4399516;32;20530;-66
2021/05/27 07:38:23;;;;;;;3.80;3.70;;;;;;;10.55;82.14;101271.88;4409269;32;20158;-67
2021/05/27 07:40:49;;;;;;;4.43;4.20;;;;;;;10.55;81.14;101262.22;4399980;32;20074;-70
2021/05/27 07:43:14;;;;;;;3.97;3.80;;;;;;;10.39;81.83;101261.19;4393900;32;20081;-67
2021/05/27 07:45:40;;;;;;;4.20;4.00;;;;;;;10.65;81.35;101273.19;4386002;32;20065;-67
2021/05/27 07:48:05;;;;;;;4.20;4.00;;;;;;;10.65;80.52;101249.56;4399288;32;20594;-69
2021/05/27 07:50:32;;;;;;;4.40;4.20;;;;;;;10.84;79.84;101272.38;4397809;32;20088;-68
2021/05/27 07:52:57;;;;;;;4.30;4.10;;;;;;;10.69;79.66;101271.28;4396487;32;20101;-67
2021/05/27 07:55:23;;;;;;;4.03;3.83;;;;;;;10.65;80.60;101273.19;4398138;32;20084;-68
2021/05/27 07:57:49;;;;;;;3.90;3.78;;;;;;;10.87;79.72;101274.88;4410793;32;20689;-70
2021/05/27 08:00:14;;;;;;;3.85;3.67;;;;;;;10.48;79.20;101221.41;4399228;32;20172;-67
2021/05/27 08:02:40;;;;;;;4.10;3.90;;;;;;;10.70;80.13;101259.84;4403321;32;20084;-66
2021/05/27 08:05:06;;;;;;;3.87;3.75;;;;;;;10.72;78.81;101269.38;4395649;32;20093;-66
2021/05/27 08:07:31;;;;;;;3.75;3.65;;;;;;;10.75;78.91;101277.13;4401421;32;20080;-66
2021/05/27 08:09:56;;;;;;;4.00;3.80;;;;;;;10.75;79.92;101284.16;4396693;32;20539;-65
2021/05/27 08:12:22;;;;;;;4.18;3.95;;;;;;;10.96;78.80;101279.69;4390134;32;20081;-66
2021/05/27 08:14:47;;;;;;;4.10;3.90;;;;;;;10.51;78.57;101223.06;4407835;32;20761;-65
2021/05/27 08:17:13;;;;;;;3.95;3.83;;;;;;;10.98;79.12;101270.87;4398214;32;20100;-65
2021/05/27 08:19:38;;;;;;;4.12;3.92;;;;;;;11.18;79.32;101285.72;4398048;32;20065;-65
2021/05/27 08:22:03;;;;;;;4.22;4.03;;;;;;;11.17;78.22;101286.62;4417950;32;20826;-66
2021/05/27 08:24:29;;;;;;;4.00;3.80;;;;;;;11.14;77.88;101281.50;4401215;32;20077;-65
2021/05/27 08:26:54;;;;;;;4.03;3.83;;;;;;;11.21;77.96;101282.09;4399471;32;20713;-66
2021/05/27 08:29:20;;;;;;;4.43;4.22;;;;;;;11.25;78.25;101288.91;4396331;32;22008;-66
2021/05/27 08:31:45;;;;;;;4.20;4.00;;;;;;;11.33;78.39;101299.09;4400801;32;20061;-66
2021/05/27 08:34:11;;;;;;;4.05;3.85;;;;;;;10.85;76.80;101234.72;4400428;32;20118;-66
2021/05/27 08:36:37;;;;;;;3.80;3.70;;;;;;;11.40;78.00;101300.50;4400780;32;20091;-65
2021/05/27 08:39:03;;;;;;;3.90;3.80;;;;;;;11.52;77.38;101296.44;4400348;32;20655;-66
2021/05/27 08:41:29;;;;;;;4.10;3.90;;;;;;;11.46;76.60;101297.56;4399847;32;20123;-66
2021/05/27 08:43:54;;;;;;;4.22;4.03;;;;;;;11.37;77.26;101305.91;4411262;32;20391;-66
2021/05/27 08:46:23;;;;;;;4.07;3.87;;;;;;;10.63;76.33;101172.66;4411241;32;20519;-65
2021/05/27 08:48:49;;;;;;;4.78;4.57;;;;;;;11.47;77.58;101303.72;4397473;32;20869;-66
2021/05/27 08:51:14;;;;;;;3.70;3.60;;;;;;;11.31;76.76;101277.28;4395702;32;20066;-66
2021/05/27 08:53:39;;;;;;;3.75;3.65;;;;;;;11.40;77.29;101291.75;4398102;32;20104;-66
2021/05/27 08:56:05;;;;;;;3.80;3.70;;;;;;;11.04;78.69;101310.88;4399251;32;20073;-66
2021/05/27 08:58:30;;;;;;;3.90;3.75;;;;;;;11.25;78.23;101312.56;4400847;32;20101;-65
2021/05/27 09:00:55;;;;;;;3.85;3.75;;;;;;;11.23;77.89;101306.53;4372354;32;20083;-66
2021/05/27 09:03:21;;;;;;;3.75;3.65;;;;;;;11.03;78.26;101327.59;4402290;32;20077;-66
2021/05/27 09:05:56;;;;;;;4.30;4.10;;;;;;;11.19;79.38;101323.34;4396766;32;20497;-66
2021/05/27 09:08:27;;;;;;;3.67;3.58;;;;;;;11.11;78.97;101320.22;4398048;32;20183;-66
2021/05/27 09:10:55;;;;;;;4.07;3.87;;;;;;;11.27;80.29;101315.97;4407771;32;20098;-66
2021/05/27 09:13:20;;;;;;;4.05;3.85;;;;;;;11.34;78.75;101320.00;4400816;32;20523;-65
2021/05/27 09:15:47;;;;;;;4.12;3.92;;;;;;;11.06;79.69;101327.44;4396036;32;20069;-66
2021/05/27 09:18:13;;;;;;;4.00;3.80;;;;;;;10.97;79.11;101313.78;4394371;32;20822;-66
2021/05/27 09:20:38;;;;;;;4.00;3.80;;;;;;;10.96;80.09;101333.09;4402173;32;20291;-66
2021/05/27 09:23:15;;;;;;;4.22;4.03;;;;;;;10.94;79.91;101344.56;4394310;32;20139;-65
2021/05/27 09:25:42;;;;;;;3.72;3.62;;;;;;;11.04;80.05;101334.53;4409809;32;20080;-65
2021/05/27 09:28:08;;;;;;;3.95;3.83;;;;;;;11.11;79.88;101335.97;4394221;32;20101;-65
2021/05/27 09:30:47;;;;;;;3.95;3.78;;;;;;;11.29;78.36;101340.41;4409929;32;20809;-65
2021/05/27 09:33:12;;;;;;;3.70;3.60;;;;;;;11.24;78.12;101338.91;4394812;32;20096;-66
2021/05/27 09:35:38;;;;;;;4.10;3.90;;;;;;;11.05;79.85;101350.22;4386337;32;20556;-66
2021/05/27 09:38:03;;;;;;;3.80;3.70;;;;;;;11.05;78.81;101336.25;4399009;32;20065;-65
2021/05/27 09:40:30;;;;;;;3.78;3.67;;;;;;;11.07;78.96;101351.00;4383839;32;20658;-65
2021/05/27 09:42:57;;;;;;;3.90;3.80;;;;;;;11.00;79.35;101344.31;4405238;32;20084;-66
2021/05/27 09:45:22;;;;;;;3.90;3.80;;;;;;;11.08;79.57;101347.44;4396769;32;20195;-65
2021/05/27 09:47:48;;;;;;;4.20;4.00;;;;;;;10.88;79.13;101342.22;4396978;32;20555;-65
2021/05/27 09:50:13;;;;;;;3.80;3.70;;;;;;;10.94;80.38;101355.09;4398141;32;20132;-65
2021/05/27 09:52:42;;;;;;;4.18;3.97;;;;;;;10.61;80.69;101357.38;4384923;32;20203;-65
2021/05/27 09:55:14;;;;;;;4.20;4.00;;;;;;;10.52;80.91;101361.22;4397375;32;20096;-65
2021/05/27 09:57:41;;;;;;;4.63;4.43;;;;;;;10.26;81.95;101360.47;4407017;32;20065;-65
2021/05/27 10:00:07;;;;;;;3.85;3.67;;;;;;;9.99;82.24;101313.47;4396254;32;20804;-65
2021/05/27 10:02:35;;;;;;;3.70;3.60;;;;;;;10.35;82.45;101368.03;4399840;32;20163;-65
2021/05/27 10:05:06;;;;;;;4.07;3.87;;;;;;;10.35;81.99;101380.28;4394281;32;20104;-65
2021/05/27 10:07:53;;;;;;;3.70;3.60;;;;;;;10.60;82.14;101374.03;4384840;32;20937;-65
2021/05/27 10:10:20;;;;;;;4.50;4.30;;;;;;;10.40;82.34;101359.09;4397763;32;20118;-65
2021/05/27 10:12:47;;;;;;;4.20;4.00;;;;;;;10.99;81.49;101379.37;4411066;32;20083;-64
2021/05/27 10:15:16;;;;;;;5.75;5.45;;;;;;;10.98;80.19;101377.66;4406596;32;20081;-65
2021/05/27 10:17:42;;;;;;;3.87;3.75;;;;;;;10.62;82.66;101365.16;4395524;32;20437;-66
2021/05/27 10:20:12;;;;;;;3.60;3.50;;;;;;;10.97;81.80;101373.34;4397487;32;20079;-65
2021/05/27 10:22:38;;;;;;;3.95;3.80;;;;;;;10.92;82.70;101375.31;4385514;32;20171;-65
2021/05/27 10:25:05;;;;;;;3.95;3.75;;;;;;;11.14;81.50;101377.84;4385219;32;20109;-65
2021/05/27 10:27:30;;;;;;;3.75;3.65;;;;;;;10.30;80.91;101214.34;4394717;32;20544;-65
2021/05/27 10:29:56;;;;;;;3.70;3.60;;;;;;;11.55;81.02;101383.06;4392850;32;20085;-65
2021/05/27 10:32:22;;;;;;;3.87;3.75;;;;;;;11.30;80.38;101381.50;4389341;32;20097;-64
2021/05/27 10:34:51;;;;;;;3.90;3.75;;;;;;;11.32;80.00;101381.44;4393779;32;20064;-65
2021/05/27 10:37:36;;;;;;;4.10;3.90;;;;;;;11.32;80.66;101384.06;4385588;32;20073;-69
2021/05/27 10:40:03;;;;;;;3.85;3.75;;;;;;;11.52;79.55;101380.56;4402549;32;20073;-68
2021/05/27 10:42:55;;;;;;;4.03;3.83;;;;;;;11.44;80.46;101385.31;4398507;32;20350;-68
2021/05/27 10:45:20;;;;;;;4.30;4.10;;;;;;;11.61;78.83;101392.44;4373118;32;20073;-68
2021/05/27 10:48:16;;;;;;;4.10;3.90;;;;;;;11.08;79.15;101386.84;4378768;32;20064;-67
2021/05/27 10:50:48;;;;;;;4.07;3.87;;;;;;;11.37;79.52;101390.00;4388833;32;20120;-68
2021/05/27 10:53:39;;;;;;;4.03;3.83;;;;;;;11.28;79.82;101393.03;4392526;32;20326;-70
2021/05/27 10:56:06;;;;;;;4.22;4.03;;;;;;;11.57;79.27;101389.09;4388933;32;20081;-66
2021/05/27 11:01:16;;;;;;;3.75;3.65;;;;;;;11.65;78.54;101394.03;4385018;32;20180;-67
2021/05/27 11:03:52;;;;;;;4.10;3.90;;;;;;;11.42;78.61;101401.12;4395578;32;20604;-64
2021/05/27 11:06:18;;;;;;;4.10;3.90;;;;;;;11.17;78.75;101402.22;4389593;32;20088;-69
2021/05/27 11:08:43;;;;;;;4.15;3.95;;;;;;;11.37;78.59;101417.13;4383258;32;20077;-68
2021/05/27 11:11:35;;;;;;;4.20;4.00;;;;;;;11.40;79.40;101408.25;4391655;32;20082;-68
2021/05/27 11:14:20;;;;;;;4.30;4.10;;;;;;;11.56;78.14;101401.38;4394504;32;20083;-66
2021/05/27 11:19:56;;;;;;;3.75;3.65;;;;;;;11.53;76.99;101398.06;4396879;32;20066;-66
2021/05/27 11:22:39;;;;;;;4.17;3.97;;;;;;;11.52;77.22;101397.19;4383065;32;20620;-66
2021/05/27 11:25:15;;;;;;;4.10;3.90;;;;;;;11.64;77.56;101405.44;4390479;32;20096;-67
2021/05/27 11:27:49;;;;;;;4.22;4.03;;;;;;;11.65;77.56;101407.16;4385572;32;20132;-69
2021/05/27 11:30:41;;;;;;;4.00;3.80;;;;;;;11.83;77.11;101403.69;4392842;32;20088;-67
2021/05/27 11:33:12;;;;;;;4.00;3.80;;;;;;;11.91;77.54;101412.09;4389694;32;20772;-67
2021/05/27 11:35:38;;;;;;;4.20;4.00;;;;;;;11.74;77.82;101406.72;4393447;32;20093;-66
2021/05/27 11:38:19;;;;;;;4.20;4.00;;;;;;;11.70;78.74;101416.53;4392427;32;20090;-66